Lafayette, Minnesota
Current Conditions -  °F | °C
As of 11:54 PM on Wednesday 26 Nov 2014 (Local Time) from KULM Reporting Station
Clear Clear  
Wind Chill: -18°   Ceiling: Unl
Heat Index:   Visibility: 10mi
Dew Point: -4°   Wind: 15mph
Humidity: 78%   Direction: 310°NW
Pressure: 30.44"   Gusts: NA
Location:  44.45°N, 94.4°W
Report Text: KULM 270554Z AUTO 31013KT 10SM CLR M17/M20 A3044 RMK AO2
Loading
Personal Weather Stations






























Interactive Weather Map New forecast layout! Learn more

10-Day Weather Forecast

Advertisements
Track Severe Weather on mobile